Time;durP1;ratioP1;P1;durP2;ratioP2;P2;SDS_P1;SDS_P2;PMS_P1;PMS_P2;Temp;Humidity;BMP_temperature;BMP_pressure;BME280_temperature;BME280_humidity;BME280_pressure;Samples;Min_cycle;Max_cycle;Signal;HPM_P1;HPM_P2
2022/07/19 00:02:12;;;;;;;5.07;2.47;;;;;;;15.33;68.84;99591.16;4936034;29;20056;-79
2022/07/19 00:04:40;;;;;;;5.15;2.38;;;;;;;15.21;68.68;99580.91;4935953;29;20075;-79
2022/07/19 00:07:07;;;;;;;5.68;2.42;;;;;;;15.25;68.98;99587.84;4936139;29;20161;-80
2022/07/19 00:09:34;;;;;;;6.80;2.60;;;;;;;15.01;69.07;99551.50;4936050;29;20095;-80
2022/07/19 00:12:01;;;;;;;6.15;2.85;;;;;;;15.09;69.25;99570.63;4935912;29;20103;-76
2022/07/19 00:14:28;;;;;;;5.60;2.28;;;;;;;15.14;69.32;99590.69;4935867;29;20556;-77
2022/07/19 00:16:55;;;;;;;5.45;2.47;;;;;;;15.06;69.86;99589.13;4935925;29;20513;-80
2022/07/19 00:19:22;;;;;;;3.58;2.70;;;;;;;15.02;69.64;99600.59;4936130;29;20060;-79
2022/07/19 00:21:49;;;;;;;3.00;2.40;;;;;;;14.95;70.15;99598.06;4935896;29;20063;-78
2022/07/19 00:24:18;;;;;;;3.03;2.20;;;;;;;14.86;70.58;99585.09;4936031;29;20066;-75
2022/07/19 00:26:45;;;;;;;6.57;2.95;;;;;;;14.60;70.16;99547.88;4935896;29;20060;-78
2022/07/19 00:29:12;;;;;;;3.65;2.13;;;;;;;14.54;70.58;99546.22;4935869;29;20110;-80
2022/07/19 00:31:39;;;;;;;4.70;2.28;;;;;;;14.69;70.99;99588.03;4935789;29;20090;-77
2022/07/19 00:34:06;;;;;;;2.60;2.20;;;;;;;14.64;70.86;99586.38;4935559;29;20103;-80
2022/07/19 00:36:33;;;;;;;4.97;2.58;;;;;;;14.62;71.26;99589.00;4935679;29;20054;-77
2022/07/19 00:39:00;;;;;;;4.68;2.40;;;;;;;14.58;71.40;99594.34;4935692;29;20051;-79
2022/07/19 00:41:27;;;;;;;5.07;2.63;;;;;;;14.45;71.76;99577.88;4950689;29;20134;-78
2022/07/19 00:43:56;;;;;;;8.10;2.55;;;;;;;14.47;71.72;99607.63;4939090;29;20179;-79
2022/07/19 00:46:23;;;;;;;4.50;2.40;;;;;;;14.43;71.93;99605.94;4953858;29;20047;-78
2022/07/19 00:48:50;;;;;;;4.38;2.50;;;;;;;14.36;72.40;99593.81;4955503;29;20528;-78
2022/07/19 00:51:18;;;;;;;4.85;2.45;;;;;;;14.27;72.49;99577.31;4957534;29;20078;-77
2022/07/19 00:53:46;;;;;;;7.57;2.50;;;;;;;14.24;72.39;99587.00;4954928;29;20055;-80
2022/07/19 00:56:13;;;;;;;3.85;2.13;;;;;;;14.25;72.38;99596.63;4954516;29;20406;-80
2022/07/19 00:58:41;;;;;;;2.83;2.17;;;;;;;14.22;72.39;99594.91;4954376;29;20055;-78
2022/07/19 01:01:09;;;;;;;6.43;2.40;;;;;;;14.18;72.47;99603.72;4958529;29;20114;-77
2022/07/19 01:03:39;;;;;;;3.38;2.45;;;;;;;13.95;72.60;99561.19;4958852;29;20568;-77
2022/07/19 01:06:08;;;;;;;6.87;2.50;;;;;;;14.14;72.45;99610.78;4957091;29;20054;-77
2022/07/19 01:08:37;;;;;;;3.05;2.45;;;;;;;14.13;72.59;99602.91;4954291;29;20051;-77
2022/07/19 01:11:05;;;;;;;3.72;2.40;;;;;;;14.04;72.67;99598.66;4942377;29;20055;-78
2022/07/19 01:13:33;;;;;;;6.65;2.58;;;;;;;14.06;72.55;99602.13;4934859;29;20055;-77
2022/07/19 01:16:01;;;;;;;3.25;2.30;;;;;;;14.08;72.76;99600.38;4935049;29;20062;-77
2022/07/19 01:18:28;;;;;;;5.32;2.45;;;;;;;13.90;72.77;99571.78;4934887;29;20068;-77
2022/07/19 01:20:57;;;;;;;5.07;2.45;;;;;;;13.98;72.92;99596.16;4935145;29;20055;-77
2022/07/19 01:23:24;;;;;;;8.13;2.92;;;;;;;13.83;72.91;99570.09;4935266;29;20101;-77
2022/07/19 01:25:51;;;;;;;6.38;2.60;;;;;;;14.02;72.69;99605.69;4934891;29;20147;-77
2022/07/19 01:28:18;;;;;;;3.22;2.25;;;;;;;14.03;72.75;99615.34;4934943;29;20048;-77
2022/07/19 01:30:45;;;;;;;8.93;2.63;;;;;;;13.95;72.72;99601.44;4934957;29;20091;-79
2022/07/19 01:33:12;;;;;;;4.00;2.40;;;;;;;13.81;72.63;99579.75;4934867;29;20056;-77
2022/07/19 01:35:39;;;;;;;4.47;2.40;;;;;;;13.94;72.74;99615.47;4934940;29;20055;-79
2022/07/19 01:38:06;;;;;;;5.55;2.60;;;;;;;14.02;72.35;99620.59;4942251;29;20141;-78
2022/07/19 01:40:33;;;;;;;5.70;2.45;;;;;;;13.97;72.85;99611.94;4954207;29;20055;-76
2022/07/19 01:43:00;;;;;;;6.03;2.40;;;;;;;13.94;72.52;99602.34;4954120;29;20063;-78
2022/07/19 01:45:27;;;;;;;3.42;2.03;;;;;;;14.05;72.51;99624.06;4953915;28;20155;-78
2022/07/19 01:47:54;;;;;;;7.10;2.25;;;;;;;13.91;72.17;99600.59;4956562;29;20055;-76
2022/07/19 01:50:24;;;;;;;5.20;2.13;;;;;;;14.07;72.07;99631.91;4957531;29;20082;-78
2022/07/19 01:52:51;;;;;;;5.10;2.35;;;;;;;14.05;72.12;99612.69;4940070;29;20051;-78
2022/07/19 01:55:19;;;;;;;5.22;2.67;;;;;;;14.20;71.73;99622.09;4957310;29;20114;-78
2022/07/19 01:58:04;;;;;;;4.75;2.20;;;;;;;14.22;71.55;99631.69;4940075;29;20085;-78
2022/07/19 02:00:31;;;;;;;3.00;1.95;;;;;;;14.22;71.20;99626.44;4957321;29;20063;-78
2022/07/19 02:02:58;;;;;;;3.90;2.10;;;;;;;14.09;71.03;99580.25;4957324;29;20066;-78
2022/07/19 02:05:26;;;;;;;4.88;2.40;;;;;;;14.40;70.35;99627.91;4972321;28;20055;-78
2022/07/19 02:07:53;;;;;;;4.07;2.28;;;;;;;14.49;70.56;99630.38;4940069;29;20145;-79
2022/07/19 02:10:20;;;;;;;3.85;2.10;;;;;;;14.46;70.11;99617.28;4957232;29;20059;-78
2022/07/19 02:12:47;;;;;;;3.22;2.35;;;;;;;14.57;69.83;99609.25;4956993;29;20532;-78
2022/07/19 02:15:14;;;;;;;5.40;2.30;;;;;;;14.65;69.32;99627.53;4957033;29;20142;-78
2022/07/19 02:17:41;;;;;;;3.55;2.22;;;;;;;14.70;69.11;99617.81;4956544;29;20102;-76
2022/07/19 02:20:09;;;;;;;4.15;2.30;;;;;;;14.69;68.49;99589.78;4957006;29;20062;-77
2022/07/19 02:22:36;;;;;;;3.60;1.98;;;;;;;15.04;68.14;99640.88;4956709;29;20113;-77
2022/07/19 02:25:04;;;;;;;4.22;2.38;;;;;;;15.85;65.97;99631.38;4956813;29;20054;-78
2022/07/19 02:27:31;;;;;;;3.55;2.10;;;;;;;18.41;58.50;99646.53;4971404;28;20058;-78
2022/07/19 02:29:57;;;;;;;2.85;2.10;;;;;;;20.97;51.10;99624.66;4956624;29;20104;-77
2022/07/19 02:32:24;;;;;;;5.45;1.80;;;;;;;22.75;46.17;99602.22;4956853;29;20114;-77
2022/07/19 02:34:51;;;;;;;4.38;2.00;;;;;;;24.37;42.92;99616.59;4956239;29;20051;-78
2022/07/19 02:37:18;;;;;;;2.92;1.92;;;;;;;25.61;39.61;99619.00;4956767;29;20055;-80
2022/07/19 02:39:45;;;;;;;5.40;1.83;;;;;;;26.50;37.63;99628.47;4956402;29;20461;-79
2022/07/19 02:42:12;;;;;;;3.53;1.90;;;;;;;27.41;35.83;99625.06;4956592;29;20059;-77
2022/07/19 02:44:39;;;;;;;4.35;2.20;;;;;;;28.18;34.15;99626.66;4956945;29;20059;-77
2022/07/19 02:47:06;;;;;;;4.55;2.20;;;;;;;28.76;32.82;99616.09;4956365;29;20059;-79
2022/07/19 02:49:33;;;;;;;2.60;2.08;;;;;;;28.86;32.11;99586.66;4956385;29;20054;-80
2022/07/19 02:52:00;;;;;;;3.05;2.13;;;;;;;29.59;31.38;99622.25;4956263;29;20058;-79
2022/07/19 02:54:27;;;;;;;2.47;1.88;;;;;;;30.38;29.78;99611.44;4944165;29;20099;-78
2022/07/19 02:56:54;;;;;;;5.22;1.95;;;;;;;30.61;29.14;99596.03;4936668;29;20055;-78
2022/07/19 02:59:21;;;;;;;4.40;1.67;;;;;;;31.38;27.85;99622.66;4937193;29;20122;-78
2022/07/19 03:01:48;;;;;;;2.38;2.05;;;;;;;31.79;27.19;99612.81;4936981;29;20063;-79
2022/07/19 03:04:15;;;;;;;3.25;1.83;;;;;;;32.21;26.44;99622.59;4937094;29;20508;-78
2022/07/19 03:06:42;;;;;;;4.25;1.90;;;;;;;32.70;25.71;99620.84;4936893;29;20096;-78
2022/07/19 03:09:09;;;;;;;7.95;2.10;;;;;;;32.77;25.28;99580.53;4936828;29;20670;-78
2022/07/19 03:11:36;;;;;;;6.22;2.08;;;;;;;33.25;24.83;99614.78;4937052;29;20138;-77
2022/07/19 03:14:03;;;;;;;5.65;2.17;;;;;;;33.55;24.26;99612.84;4936908;29;20083;-77
2022/07/19 03:16:30;;;;;;;3.05;2.20;;;;;;;33.92;24.09;99620.09;4936404;29;20399;-78
2022/07/19 03:18:57;;;;;;;3.85;1.98;;;;;;;34.44;23.02;99625.81;4936649;29;20114;-79
2022/07/19 03:21:24;;;;;;;3.08;1.80;;;;;;;34.81;22.75;99612.09;4936688;29;20502;-78
2022/07/19 03:23:51;;;;;;;7.28;2.25;;;;;;;35.39;21.70;99613.38;4936530;29;20055;-79
2022/07/19 03:26:18;;;;;;;3.97;1.70;;;;;;;35.80;21.80;99621.75;4936472;29;20063;-77
2022/07/19 03:28:45;;;;;;;4.90;1.60;;;;;;;36.36;20.91;99626.72;4936279;29;20086;-78
2022/07/19 03:31:13;;;;;;;2.58;1.83;;;;;;;36.78;20.56;99620.31;4936817;29;20055;-78
2022/07/19 03:33:40;;;;;;;6.35;1.80;;;;;;;36.91;20.19;99623.38;4936449;29;20073;-78
2022/07/19 03:36:07;;;;;;;3.55;2.03;;;;;;;37.55;19.76;99628.91;4936838;29;20063;-77
2022/07/19 03:38:34;;;;;;;4.38;1.70;;;;;;;38.51;18.56;99627.84;4936333;29;20067;-77
2022/07/19 03:41:01;;;;;;;2.47;1.60;;;;;;;38.87;18.33;99613.56;4936294;29;20048;-77
2022/07/19 03:43:28;;;;;;;3.80;1.50;;;;;;;40.12;17.13;99620.25;4936094;29;20067;-77
2022/07/19 03:45:55;;;;;;;2.53;1.52;;;;;;;40.28;16.33;99627.41;4936080;29;20048;-77
2022/07/19 03:48:22;;;;;;;2.78;1.17;;;;;;;37.57;18.91;99620.59;4935011;29;20126;-78
2022/07/19 03:50:49;;;;;;;5.40;1.80;;;;;;;34.13;22.60;99622.59;4936099;29;20067;-77
2022/07/19 03:53:17;;;;;;;3.60;1.08;;;;;;;31.20;25.82;99614.34;4936240;29;20056;-77
2022/07/19 03:55:43;;;;;;;6.72;1.67;;;;;;;29.26;28.38;99615.88;4935868;29;20122;-78
2022/07/19 03:58:10;;;;;;;2.33;1.55;;;;;;;27.96;30.42;99624.69;4935996;29;20051;-77
2022/07/19 04:00:37;;;;;;;5.53;2.00;;;;;;;27.20;32.05;99619.34;4918851;29;20062;-76
2022/07/19 04:03:04;;;;;;;5.07;1.30;;;;;;;26.51;33.10;99624.88;4935957;29;20055;-77
2022/07/19 04:05:32;;;;;;;2.65;1.40;;;;;;;25.85;34.29;99624.63;4950119;29;20437;-78
2022/07/19 04:07:59;;;;;;;2.35;1.25;;;;;;;25.17;34.87;99589.66;4935562;29;20071;-79
2022/07/19 04:10:26;;;;;;;5.72;1.55;;;;;;;25.13;35.51;99619.25;4935074;29;20059;-77
2022/07/19 04:12:53;;;;;;;4.10;1.33;;;;;;;25.03;35.95;99638.59;4950387;29;20466;-78
2022/07/19 04:15:20;;;;;;;1.55;1.40;;;;;;;24.81;36.12;99613.16;4935695;29;20078;-78
2022/07/19 04:17:47;;;;;;;4.57;1.40;;;;;;;24.79;36.02;99619.56;4935508;29;20154;-79
2022/07/19 04:20:14;;;;;;;4.18;1.23;;;;;;;24.35;37.19;99630.97;4935370;29;20055;-78
2022/07/19 04:22:41;;;;;;;1.92;1.50;;;;;;;24.00;38.03;99632.00;4933860;29;20078;-79
2022/07/19 04:25:09;;;;;;;4.07;1.52;;;;;;;23.52;38.48;99629.25;4935474;29;20055;-77
2022/07/19 04:27:36;;;;;;;4.22;1.60;;;;;;;23.29;39.44;99637.59;4935802;29;20048;-80
2022/07/19 04:30:04;;;;;;;3.60;1.50;;;;;;;23.69;38.39;99627.50;4935415;29;20059;-79
2022/07/19 04:32:33;;;;;;;4.95;1.73;;;;;;;24.09;37.93;99634.19;4935072;29;20402;-76
2022/07/19 04:35:00;;;;;;;2.67;1.23;;;;;;;23.67;38.62;99632.91;4936102;29;20115;-80
2022/07/19 04:37:28;;;;;;;1.63;1.02;;;;;;;23.37;39.16;99624.75;4936038;29;20323;-79
2022/07/19 04:39:56;;;;;;;1.65;1.17;;;;;;;22.99;39.91;99630.25;4935924;29;20056;-78
2022/07/19 04:42:22;;;;;;;2.70;1.20;;;;;;;22.48;40.83;99639.94;4936069;29;20087;-78
2022/07/19 04:44:49;;;;;;;3.90;1.45;;;;;;;22.00;41.69;99618.25;4935717;29;20524;-80
2022/07/19 04:47:16;;;;;;;1.92;1.52;;;;;;;22.20;41.76;99648.34;4935854;29;20055;-77
2022/07/19 04:49:43;;;;;;;1.30;1.20;;;;;;;22.12;42.03;99639.88;4950638;29;20056;-79
2022/07/19 04:52:10;;;;;;;1.20;1.10;;;;;;;22.49;41.35;99641.66;4936123;29;20150;-81
2022/07/19 04:54:38;;;;;;;1.27;1.10;;;;;;;22.78;40.94;99653.53;4937072;29;20051;-82
2022/07/19 04:57:08;;;;;;;3.70;1.67;;;;;;;22.53;40.81;99602.44;4938977;29;20510;-80
2022/07/19 04:59:34;;;;;;;;;;;;;;;22.88;40.54;99636.13;4937503;29;20502;-79
2022/07/19 05:02:01;;;;;;;2.33;1.35;;;;;;;23.18;40.17;99638.19;4938585;29;19934;-80
2022/07/19 05:04:31;;;;;;;2.97;1.55;;;;;;;23.09;40.38;99638.66;4941243;29;20054;-79
2022/07/19 05:07:01;;;;;;;3.70;1.08;;;;;;;22.83;40.48;99608.88;4938180;29;20426;-77
2022/07/19 05:09:28;;;;;;;1.77;1.58;;;;;;;22.58;41.36;99648.31;4948585;29;20055;-78
2022/07/19 05:11:56;;;;;;;3.08;1.70;;;;;;;22.38;41.86;99647.50;4956272;29;20067;-77
2022/07/19 05:14:23;;;;;;;2.20;1.42;;;;;;;22.41;41.70;99604.78;4953758;29;20421;-78
2022/07/19 05:16:50;;;;;;;1.65;1.20;;;;;;;22.80;41.22;99637.44;4954098;29;20509;-80
2022/07/19 05:19:18;;;;;;;2.10;1.20;;;;;;;23.17;40.44;99643.59;4969172;28;20063;-79
2022/07/19 05:21:45;;;;;;;3.88;1.40;;;;;;;23.17;40.17;99632.94;4957010;28;20170;-79
2022/07/19 05:24:12;;;;;;;2.95;1.20;;;;;;;22.89;40.22;99637.00;4957815;29;20402;-77
2022/07/19 05:26:39;;;;;;;2.25;1.08;;;;;;;22.42;41.24;99638.44;4957962;29;20497;-78
2022/07/19 05:29:06;;;;;;;1.00;0.93;;;;;;;22.22;40.97;99643.81;4957504;29;20051;-79
2022/07/19 05:31:33;;;;;;;2.60;1.30;;;;;;;22.07;41.28;99619.69;4940562;29;20448;-78
2022/07/19 05:34:01;;;;;;;1.00;0.90;;;;;;;22.06;41.21;99631.25;4972564;28;20077;-80
2022/07/19 05:36:28;;;;;;;2.53;1.20;;;;;;;21.88;41.94;99643.63;4940668;29;20051;-79
2022/07/19 05:38:55;;;;;;;3.70;0.80;;;;;;;22.08;41.37;99649.81;4957725;29;20509;-80
2022/07/19 05:41:23;;;;;;;5.10;1.35;;;;;;;21.64;41.58;99653.59;4972565;28;20055;-78
2022/07/19 05:43:51;;;;;;;0.63;0.63;;;;;;;21.52;42.23;99643.53;4957309;29;20424;-78
2022/07/19 05:46:19;;;;;;;5.65;1.15;;;;;;;21.64;42.05;99618.19;4956346;29;20055;-79
2022/07/19 05:48:47;;;;;;;2.92;0.98;;;;;;;21.58;42.14;99650.38;4957270;29;20059;-78
2022/07/19 05:51:14;;;;;;;2.42;1.10;;;;;;;21.15;42.78;99644.28;4957608;29;20063;-79
2022/07/19 05:53:42;;;;;;;2.35;0.90;;;;;;;20.87;42.76;99587.06;4967750;29;20119;-78
2022/07/19 05:56:10;;;;;;;3.88;1.02;;;;;;;20.69;43.42;99624.97;4973619;29;20050;-78
2022/07/19 05:58:37;;;;;;;2.08;0.98;;;;;;;20.86;43.46;99626.00;4971027;29;20066;-78
2022/07/19 06:01:19;;;;;;;4.30;1.10;;;;;;;21.28;42.46;99629.50;4963351;29;20109;-78
2022/07/19 06:03:52;;;;;;;3.30;1.30;;;;;;;21.71;41.72;99643.56;4958136;29;20106;-80
2022/07/19 06:06:27;;;;;;;3.53;1.20;;;;;;;22.20;40.79;99637.69;4959118;29;20098;-80
2022/07/19 06:08:55;;;;;;;3.03;1.05;;;;;;;22.14;39.81;99641.53;4957082;29;20051;-80
2022/07/19 06:11:23;;;;;;;2.40;1.20;;;;;;;22.17;40.59;99635.19;4955582;29;20079;-79
2022/07/19 06:13:51;;;;;;;3.20;1.30;;;;;;;22.33;40.27;99633.56;4957085;29;20162;-79
2022/07/19 06:16:19;;;;;;;3.45;1.63;;;;;;;22.14;40.30;99620.25;4929415;29;20060;-78
2022/07/19 06:18:47;;;;;;;3.20;1.00;;;;;;;21.85;40.73;99630.50;4944335;28;20067;-80
2022/07/19 06:21:17;;;;;;;3.20;1.30;;;;;;;21.63;41.25;99651.00;4953489;29;20059;-82
2022/07/19 06:23:45;;;;;;;6.43;1.50;;;;;;;21.76;41.16;99627.38;4943340;29;20052;-81
2022/07/19 06:26:12;;;;;;;1.58;1.23;;;;;;;21.83;41.24;99645.66;4936883;29;20051;-79
2022/07/19 06:28:40;;;;;;;1.60;1.00;;;;;;;21.57;41.30;99651.28;4936854;29;20474;-81
2022/07/19 06:31:08;;;;;;;0.93;0.80;;;;;;;21.46;41.17;99628.69;4936813;29;20060;-80
2022/07/19 06:33:39;;;;;;;1.88;1.00;;;;;;;21.62;40.90;99620.06;4935729;29;20086;-78
2022/07/19 06:36:06;;;;;;;3.75;0.90;;;;;;;21.63;40.89;99645.69;4936927;29;20078;-81
2022/07/19 06:38:33;;;;;;;1.92;1.20;;;;;;;21.48;40.78;99639.28;4936924;29;20063;-80
2022/07/19 06:41:00;;;;;;;1.55;0.82;;;;;;;21.74;40.71;99647.84;4936520;29;20055;-78
2022/07/19 06:43:27;;;;;;;1.20;1.10;;;;;;;21.87;40.68;99638.38;4936863;29;20112;-80
2022/07/19 06:45:55;;;;;;;6.53;1.73;;;;;;;21.78;40.49;99649.44;4936658;29;20565;-76
2022/07/19 06:48:22;;;;;;;4.55;1.08;;;;;;;21.72;40.53;99644.41;4936486;29;20490;-79
2022/07/19 06:50:49;;;;;;;3.05;1.10;;;;;;;21.51;40.19;99583.34;4936122;29;20146;-79
2022/07/19 06:53:17;;;;;;;1.92;1.30;;;;;;;21.91;39.89;99647.06;4949594;29;20466;-79
2022/07/19 06:55:44;;;;;;;1.67;1.15;;;;;;;22.06;39.74;99628.59;4955519;29;20051;-79
2022/07/19 06:58:11;;;;;;;1.13;1.00;;;;;;;21.86;39.86;99631.34;4920088;29;20083;-79
2022/07/19 07:00:39;;;;;;;2.25;1.15;;;;;;;21.58;40.72;99635.28;4936183;29;20496;-79
2022/07/19 07:03:06;;;;;;;4.22;1.60;;;;;;;21.42;41.52;99627.16;4935789;29;20564;-80
2022/07/19 07:05:33;;;;;;;3.53;1.10;;;;;;;21.10;41.98;99595.78;4936312;29;20063;-80
2022/07/19 07:08:01;;;;;;;3.65;1.35;;;;;;;21.52;41.28;99618.75;4936032;29;20131;-79
2022/07/19 07:10:28;;;;;;;13.25;1.58;;;;;;;21.77;40.40;99640.63;4935680;29;20052;-79
2022/07/19 07:12:55;;;;;;;3.67;1.10;;;;;;;21.71;40.09;99608.13;4936144;29;20548;-79
2022/07/19 07:15:22;;;;;;;4.53;1.20;;;;;;;21.79;40.18;99612.16;4936169;29;20090;-80
2022/07/19 07:17:49;;;;;;;2.45;1.20;;;;;;;22.03;40.44;99638.53;4936131;29;20058;-79
2022/07/19 07:20:16;;;;;;;4.38;1.20;;;;;;;21.98;40.10;99601.50;4935884;29;20111;-81
2022/07/19 07:22:43;;;;;;;3.58;1.20;;;;;;;21.94;40.79;99653.13;4936128;29;20085;-81
2022/07/19 07:25:10;;;;;;;3.40;2.10;;;;;;;22.06;40.39;99639.22;4937187;29;20126;-80
2022/07/19 07:27:38;;;;;;;2.35;1.10;;;;;;;22.26;38.65;99627.69;4955160;29;20051;-81
2022/07/19 07:30:06;;;;;;;2.92;1.30;;;;;;;22.37;38.79;99623.63;4935026;29;20063;-80
2022/07/19 07:32:33;;;;;;;3.22;1.30;;;;;;;22.67;37.93;99643.41;4935576;29;20146;-82
2022/07/19 07:35:00;;;;;;;3.70;2.15;;;;;;;22.84;38.08;99647.88;4918649;29;20056;-79
2022/07/19 07:37:28;;;;;;;2.70;1.73;;;;;;;22.96;38.09;99653.53;4935749;29;20056;-79
2022/07/19 07:39:55;;;;;;;7.32;1.67;;;;;;;22.68;38.56;99652.25;4918861;29;20134;-79
2022/07/19 07:42:24;;;;;;;4.60;1.60;;;;;;;22.29;39.17;99663.91;4934412;29;20055;-79
2022/07/19 07:44:52;;;;;;;2.65;1.38;;;;;;;21.82;39.74;99646.56;4935619;29;20426;-79
2022/07/19 07:47:20;;;;;;;5.53;1.80;;;;;;;21.51;40.32;99656.88;4950212;29;20048;-79
2022/07/19 07:49:49;;;;;;;2.78;1.50;;;;;;;21.81;40.15;99647.50;4918361;29;20059;-80
2022/07/19 07:52:16;;;;;;;5.18;1.50;;;;;;;22.45;39.33;99648.06;4935520;29;20083;-78
2022/07/19 07:54:43;;;;;;;7.32;1.40;;;;;;;22.98;38.91;99649.84;4935661;29;20071;-82
2022/07/19 07:57:30;;;;;;;1.90;1.23;;;;;;;23.30;37.84;99650.00;4935556;29;20058;-82
2022/07/19 07:59:58;;;;;;;5.47;1.50;;;;;;;23.61;37.35;99641.22;4935484;29;20386;-80
2022/07/19 08:02:25;;;;;;;4.57;1.75;;;;;;;23.08;37.33;99557.91;4949018;29;20159;-81
2022/07/19 08:04:53;;;;;;;2.17;1.30;;;;;;;23.05;37.83;99637.09;4935134;29;20059;-80
2022/07/19 08:07:20;;;;;;;2.78;1.20;;;;;;;22.40;38.57;99645.63;4918489;29;20063;-79
2022/07/19 08:09:49;;;;;;;3.58;1.30;;;;;;;21.95;39.37;99665.47;4917657;29;20059;-78
2022/07/19 08:12:17;;;;;;;3.80;1.30;;;;;;;22.20;39.36;99643.03;4933827;29;20055;-79
2022/07/19 08:14:43;;;;;;;3.25;1.80;;;;;;;22.56;38.54;99640.41;4934637;29;20533;-80
2022/07/19 08:17:11;;;;;;;3.10;1.40;;;;;;;23.16;37.67;99636.53;4933075;29;20059;-79
2022/07/19 08:19:38;;;;;;;4.05;1.63;;;;;;;23.49;36.68;99665.91;4949680;29;20089;-80
2022/07/19 08:22:05;;;;;;;3.08;1.27;;;;;;;22.98;36.67;99619.69;4934824;29;20065;-79
2022/07/19 08:24:32;;;;;;;5.05;1.73;;;;;;;23.12;37.03;99653.63;4934733;29;20054;-80
2022/07/19 08:26:59;;;;;;;6.60;1.85;;;;;;;22.73;37.02;99657.34;4934774;29;20059;-81
2022/07/19 08:29:26;;;;;;;3.03;2.00;;;;;;;22.80;35.92;99672.94;4934874;29;20058;-79
2022/07/19 08:31:53;;;;;;;8.70;2.90;;;;;;;23.05;34.99;99663.72;4934732;29;20048;-80
2022/07/19 08:34:20;;;;;;;2.90;1.10;;;;;;;22.68;34.98;99628.28;4934713;29;20098;-78
2022/07/19 08:36:48;;;;;;;3.58;1.38;;;;;;;22.19;35.99;99607.59;4949857;29;20051;-80
2022/07/19 08:39:14;;;;;;;2.05;1.20;;;;;;;22.31;36.08;99615.97;4934744;29;20051;-79
2022/07/19 08:41:46;;;;;;;3.35;1.15;;;;;;;22.56;36.43;99656.38;4933509;29;20461;-78
2022/07/19 08:44:16;;;;;;;4.10;1.67;;;;;;;22.49;36.39;99657.63;4918789;29;20087;-83
2022/07/19 08:46:43;;;;;;;2.60;1.10;;;;;;;22.48;36.00;99674.53;4935597;29;20062;-81
2022/07/19 08:49:11;;;;;;;1.58;1.48;;;;;;;22.56;35.62;99656.38;4935410;29;20134;-81
2022/07/19 08:51:39;;;;;;;1.70;1.20;;;;;;;22.64;34.82;99629.38;4935559;29;20114;-79
2022/07/19 08:54:06;;;;;;;2.47;1.13;;;;;;;23.26;34.53;99620.00;4935265;29;20051;-80
2022/07/19 08:59:22;;;;;;;1.70;1.10;;;;;;;23.54;34.50;99625.66;4950121;29;20146;-78
2022/07/19 09:01:50;;;;;;;2.42;1.00;;;;;;;23.41;34.46;99647.63;4935674;29;20106;-82
2022/07/19 09:04:20;;;;;;;4.88;1.40;;;;;;;23.13;35.10;99655.34;4935752;29;20083;-79
2022/07/19 09:06:49;;;;;;;6.80;1.50;;;;;;;22.74;34.64;99645.78;4935854;29;20059;-83
2022/07/19 09:09:19;;;;;;;2.00;0.93;;;;;;;22.50;35.29;99651.38;4936366;29;20110;-80
2022/07/19 09:11:50;;;;;;;2.58;1.38;;;;;;;22.42;35.87;99662.38;4923793;29;20111;-81
2022/07/19 09:14:22;;;;;;;3.17;1.27;;;;;;;22.30;36.29;99647.00;4935649;29;20067;-81
2022/07/19 09:16:51;;;;;;;2.25;1.08;;;;;;;22.46;36.13;99649.78;4940504;29;20532;-80
2022/07/19 09:19:19;;;;;;;2.33;0.90;;;;;;;22.44;36.22;99615.28;4955364;29;20146;-80
2022/07/19 09:22:09;;;;;;;7.00;3.30;;;;;;;22.47;36.17;99622.22;4935388;29;20062;-81
2022/07/19 09:24:48;;;;;;;11.77;5.72;;;;;;;22.29;35.84;99606.25;4919362;29;20395;-85
2022/07/19 09:27:23;;;;;;;1.90;1.33;;;;;;;22.33;35.74;99617.59;4902907;29;20103;-80
2022/07/19 09:29:54;;;;;;;5.65;2.60;;;;;;;22.32;35.89;99630.97;4933810;29;20083;-82
2022/07/19 09:32:27;;;;;;;7.15;3.58;;;;;;;22.11;36.19;99612.41;4918211;29;20584;-81
2022/07/19 09:34:58;;;;;;;3.22;1.70;;;;;;;22.39;35.44;99635.94;4918872;29;20095;-82
2022/07/19 09:37:30;;;;;;;2.13;1.40;;;;;;;22.08;35.02;99554.91;4922534;29;20134;-80
2022/07/19 09:40:00;;;;;;;1.95;1.10;;;;;;;23.01;34.44;99622.22;4937222;29;20145;-82
2022/07/19 09:42:44;;;;;;;4.65;1.27;;;;;;;22.67;34.10;99586.63;4954899;29;20059;-82
2022/07/19 09:45:13;;;;;;;2.70;1.42;;;;;;;22.47;33.70;99601.78;4938082;29;20399;-85
2022/07/19 09:47:49;;;;;;;2.78;1.20;;;;;;;22.70;33.26;99603.31;4935603;29;20090;-81
2022/07/19 09:50:40;;;;;;;2.95;1.15;;;;;;;22.95;33.13;99599.41;4933222;29;20055;-80
2022/07/19 09:53:08;;;;;;;3.78;1.58;;;;;;;23.13;33.54;99618.06;4934898;29;20142;-81
2022/07/19 09:55:36;;;;;;;2.92;1.23;;;;;;;23.58;32.80;99628.06;4945757;29;20059;-81
2022/07/19 09:58:05;;;;;;;5.47;1.23;;;;;;;24.05;32.48;99615.78;4954433;29;20070;-79
2022/07/19 10:00:32;;;;;;;1.10;0.95;;;;;;;24.28;31.95;99620.63;4937743;29;20058;-80
2022/07/19 10:03:01;;;;;;;1.98;1.15;;;;;;;24.37;31.17;99613.06;4954188;29;20501;-78
2022/07/19 10:05:30;;;;;;;;;;;;;;;24.19;31.91;99618.50;4953604;29;20055;-82
2022/07/19 10:07:59;;;;;;;3.27;1.00;;;;;;;24.17;30.86;99612.38;4954726;28;19933;-83
2022/07/19 10:10:30;;;;;;;1.65;1.25;;;;;;;23.79;31.37;99562.09;4936843;29;20047;-81
2022/07/19 10:12:58;;;;;;;2.92;1.50;;;;;;;23.92;31.92;99621.78;4938356;29;20426;-80
2022/07/19 10:15:27;;;;;;;9.38;2.72;;;;;;;23.60;32.40;99588.00;4938461;29;20056;-84
2022/07/19 10:18:04;;;;;;;6.38;1.92;;;;;;;23.30;32.59;99602.03;4938328;29;20098;-83
2022/07/19 10:20:33;;;;;;;3.92;1.70;;;;;;;23.17;33.05;99624.97;4949146;29;20445;-85
2022/07/19 10:23:03;;;;;;;5.77;1.20;;;;;;;22.94;33.15;99602.13;4953504;29;20058;-88
2022/07/19 10:25:37;;;;;;;;;;;;;;;23.03;33.40;99618.53;4947769;29;20059;-86
2022/07/19 10:28:05;;;;;;;2.88;1.10;;;;;;;23.17;31.70;99598.31;4948723;29;20440;-82
2022/07/19 10:30:41;;;;;;;2.75;1.40;;;;;;;23.07;31.74;99596.13;4945852;29;20051;-84
2022/07/19 10:33:27;;;;;;;3.05;1.95;;;;;;;22.94;31.93;99608.31;4945998;29;20501;-83
2022/07/19 10:35:54;;;;;;;5.13;2.30;;;;;;;23.02;31.90;99618.63;4956942;29;20051;-82
2022/07/19 10:38:25;;;;;;;6.70;2.55;;;;;;;23.22;31.64;99604.25;4954977;29;20130;-79
2022/07/19 10:40:56;;;;;;;6.55;1.35;;;;;;;23.55;31.94;99622.03;4949095;29;20058;-82
2022/07/19 10:43:25;;;;;;;5.88;1.30;;;;;;;23.30;32.85;99612.69;4956682;29;20059;-82
2022/07/19 10:46:04;;;;;;;4.38;1.27;;;;;;;23.50;33.17;99619.63;4956521;29;20055;-84
2022/07/19 10:48:39;;;;;;;3.08;0.93;;;;;;;23.25;32.68;99501.03;4937311;29;20059;-82
2022/07/19 10:51:27;;;;;;;2.38;1.30;;;;;;;23.98;32.25;99615.22;4942367;29;20107;-85
2022/07/19 10:54:05;;;;;;;4.65;2.28;;;;;;;23.99;32.48;99621.44;4951499;29;20081;-83
2022/07/19 10:56:57;;;;;;;6.40;3.08;;;;;;;23.77;32.70;99577.31;4970342;29;20066;-79
2022/07/19 10:59:39;;;;;;;3.00;2.20;;;;;;;23.48;33.26;99617.03;4968666;29;20066;-81
2022/07/19 11:02:07;;;;;;;4.47;1.42;;;;;;;23.32;33.35;99621.47;4970914;29;20118;-80
2022/07/19 11:04:56;;;;;;;2.53;1.38;;;;;;;23.37;33.84;99600.75;4970955;29;20111;-79
2022/07/19 11:07:23;;;;;;;12.07;2.47;;;;;;;23.60;33.87;99612.00;4972148;29;20122;-78
2022/07/19 11:09:53;;;;;;;13.35;7.95;;;;;;;23.60;33.71;99620.84;4967854;29;20058;-80
2022/07/19 11:12:34;;;;;;;11.30;3.97;;;;;;;23.58;33.49;99621.88;4963889;29;20079;-80
2022/07/19 11:15:05;;;;;;;4.45;1.33;;;;;;;23.52;33.23;99607.94;4957349;29;20052;-80
2022/07/19 11:18:10;;;;;;;3.28;1.10;;;;;;;23.46;32.94;99613.59;4957017;29;20059;-82
2022/07/19 11:20:37;;;;;;;3.05;1.27;;;;;;;23.49;33.04;99616.09;4951336;28;20060;-80
2022/07/19 11:23:04;;;;;;;5.70;1.95;;;;;;;23.81;32.89;99620.63;4944232;29;20105;-81
2022/07/19 11:25:41;;;;;;;5.80;3.10;;;;;;;23.57;32.48;99575.69;4937375;29;20064;-82
2022/07/19 11:28:20;;;;;;;5.03;3.33;;;;;;;23.61;33.01;99606.56;4937613;29;20068;-83
2022/07/19 11:30:48;;;;;;;5.78;3.33;;;;;;;23.61;32.94;99611.03;4935884;29;20079;-83
2022/07/19 11:33:19;;;;;;;5.90;2.55;;;;;;;23.25;33.17;99561.44;4937429;29;20055;-82
2022/07/19 11:35:57;;;;;;;3.15;2.63;;;;;;;23.46;33.54;99610.91;4936701;29;20056;-83
2022/07/19 11:38:39;;;;;;;6.10;3.13;;;;;;;22.89;34.27;99567.75;4920040;29;20067;-80
2022/07/19 11:41:29;;;;;;;5.00;3.00;;;;;;;23.07;34.75;99619.22;4935726;29;20101;-82
2022/07/19 11:44:07;;;;;;;2.60;1.17;;;;;;;23.21;35.09;99626.50;4919239;29;20481;-82
2022/07/19 11:46:40;;;;;;;2.03;1.00;;;;;;;23.02;35.08;99574.19;4937140;29;20060;-80